Lithonia, GA (30038)

6:23 PM EST on November 27, 2014 (GMT -0500)
Havenridge | Change Station
CLOSE
Current Station
Personal Weather Station
Location: Conyers, GA
Elevation: 879 ft
Nearby Weather Stations

Elev 879 ft 33.67 °N, 84.08 °W | Updated 35 seconds ago

Mostly Cloudy
Mostly Cloudy
41.2 °F
Feels Like 41 °F
N
0.0
Wind Variable Wind from East

Today
High -- | Low -- °F
--% Chance of Precip.
Yesterday
High -- | Low -- °F
Precip. -- in
7:19 AM 5:28 PM
Waxing Crescent, 34% visible
Pressure 30.35 in
Visibility 10.0 miles
Clouds Mostly Cloudy 4000 ft
Windchill 41 °F
Dew Point 25 °F
Humidity 53%
Rainfall 0.00 in
Snow Depth Not available.
UV 0 out of 12
Pollen 1.60 out of 12
Air Quality Not available.
Flu Activity Not available.
METAR KATL 272252Z 32009KT 10SM BKN040 06/M03 A3033 RMK AO2 SLP277 T00561033

More Conditions Fewer Conditions

Pressure 30.35 in
Visibility 10.0 miles
Clouds Mostly Cloudy 4000 ft
Windchill 41 °F
Dew Point 25 °F
Humidity 53%
Rainfall 0.00 in
Snow Depth Not available.
UV 0 out of 12
Pollen 1.60 out of 12
Air Quality Not available.
Flu Activity Not available.
METAR KATL 272252Z 32009KT 10SM BKN040 06/M03 A3033 RMK AO2 SLP277 T00561033

More Conditions Fewer Conditions

10-Day Weather Forecast

Almanac

Astronomy

Nov. 27, 2014 Rise Set
Actual Time
Civil Twilight
Nautical Twilight
Astronomical Twilight
Moon
Length of Visible Light
Length of Day
Tomorrow will be .
, % of the Moon is Illuminated

Today's Extremes

State Highs State Lows

Community

WunderPhotos

Upload Photos

1,774,135 photos uploaded!

WunderBlogs® & News

Nearby

Air Quality

  Air Quality AQ Index Pollutant
Not available.

Snow Depth

Station Depth Elevation

Earthquake Activity

City Distance Mag. Time & Date
Minimum magnitude displayed is 2.5.

Coastal Water Temperatures

Place Temperature

Nearby Weather Stations